sensor_id;sensor_type;location;lat;lon;timestamp;pressure;altitude;pressure_sealevel;temperature;humidity
64388;BME280;50709;52.648;4.764;2023-03-14T00:00:30;98721.16;;;14.01;62.00
64388;BME280;50709;52.648;4.764;2023-03-14T00:02:56;98735.13;;;13.82;62.39
64388;BME280;50709;52.648;4.764;2023-03-14T00:05:21;98727.41;;;13.98;61.45
64388;BME280;50709;52.648;4.764;2023-03-14T00:07:46;98742.03;;;13.64;62.39
64388;BME280;50709;52.648;4.764;2023-03-14T00:10:13;98724.22;;;14.10;63.10
64388;BME280;50709;52.648;4.764;2023-03-14T00:12:40;98732.69;;;14.17;62.71
64388;BME280;50709;52.648;4.764;2023-03-14T00:15:06;98749.19;;;13.40;63.22
64388;BME280;50709;52.648;4.764;2023-03-14T00:17:34;98715.19;;;13.38;62.70
64388;BME280;50709;52.648;4.764;2023-03-14T00:20:00;98729.78;;;13.65;63.42
64388;BME280;50709;52.648;4.764;2023-03-14T00:22:37;98698.97;;;13.89;62.71
64388;BME280;50709;52.648;4.764;2023-03-14T00:25:03;98723.78;;;14.01;60.79
64388;BME280;50709;52.648;4.764;2023-03-14T00:27:28;98695.06;;;13.78;61.69
64388;BME280;50709;52.648;4.764;2023-03-14T00:29:54;98717.69;;;13.81;63.21
64388;BME280;50709;52.648;4.764;2023-03-14T00:32:19;98732.94;;;13.92;62.82
64388;BME280;50709;52.648;4.764;2023-03-14T00:34:44;98712.75;;;13.54;63.66
64388;BME280;50709;52.648;4.764;2023-03-14T00:37:10;98716.28;;;13.53;62.60
64388;BME280;50709;52.648;4.764;2023-03-14T00:39:35;98716.34;;;13.52;64.60
64388;BME280;50709;52.648;4.764;2023-03-14T00:42:01;98734.91;;;13.87;63.19
64388;BME280;50709;52.648;4.764;2023-03-14T00:44:26;98725.34;;;13.86;63.92
64388;BME280;50709;52.648;4.764;2023-03-14T00:46:51;98725.00;;;14.12;62.90
64388;BME280;50709;52.648;4.764;2023-03-14T00:49:17;98734.19;;;13.83;62.03
64388;BME280;50709;52.648;4.764;2023-03-14T00:51:42;98716.03;;;13.78;62.91
64388;BME280;50709;52.648;4.764;2023-03-14T00:54:08;98716.50;;;13.49;64.27
64388;BME280;50709;52.648;4.764;2023-03-14T00:56:33;98735.34;;;13.96;62.71
64388;BME280;50709;52.648;4.764;2023-03-14T00:58:59;98698.69;;;13.95;62.19
64388;BME280;50709;52.648;4.764;2023-03-14T01:01:24;98716.13;;;13.56;64.29
64388;BME280;50709;52.648;4.764;2023-03-14T01:03:54;98660.78;;;13.43;64.18
64388;BME280;50709;52.648;4.764;2023-03-14T01:06:22;98714.25;;;13.79;64.07
64388;BME280;50709;52.648;4.764;2023-03-14T01:08:48;98676.50;;;13.23;63.92
64388;BME280;50709;52.648;4.764;2023-03-14T01:11:17;98703.47;;;13.47;63.60
64388;BME280;50709;52.648;4.764;2023-03-14T01:13:43;98709.41;;;13.51;64.30
64388;BME280;50709;52.648;4.764;2023-03-14T01:16:10;98708.31;;;13.36;64.95
64388;BME280;50709;52.648;4.764;2023-03-14T01:18:37;98728.66;;;13.29;64.58
64388;BME280;50709;52.648;4.764;2023-03-14T01:21:04;98722.75;;;13.65;64.01
64388;BME280;50709;52.648;4.764;2023-03-14T01:23:34;98720.25;;;13.83;64.34
64388;BME280;50709;52.648;4.764;2023-03-14T01:25:59;98716.75;;;13.42;64.55
64388;BME280;50709;52.648;4.764;2023-03-14T01:28:25;98708.84;;;13.63;64.49
64388;BME280;50709;52.648;4.764;2023-03-14T01:30:50;98732.00;;;13.33;65.63
64388;BME280;50709;52.648;4.764;2023-03-14T01:33:15;98708.19;;;13.39;65.59
64388;BME280;50709;52.648;4.764;2023-03-14T01:35:41;98715.22;;;13.57;64.56
64388;BME280;50709;52.648;4.764;2023-03-14T01:38:06;98711.44;;;13.65;63.62
64388;BME280;50709;52.648;4.764;2023-03-14T01:40:31;98705.59;;;13.58;64.61
64388;BME280;50709;52.648;4.764;2023-03-14T01:43:00;98713.47;;;13.37;63.87
64388;BME280;50709;52.648;4.764;2023-03-14T01:48:34;98725.19;;;13.49;65.94
64388;BME280;50709;52.648;4.764;2023-03-14T01:51:01;98695.69;;;13.65;64.85
64388;BME280;50709;52.648;4.764;2023-03-14T01:53:27;98709.50;;;13.06;64.83
64388;BME280;50709;52.648;4.764;2023-03-14T01:55:55;98667.59;;;13.06;64.15
64388;BME280;50709;52.648;4.764;2023-03-14T01:58:25;98708.69;;;13.47;65.28
64388;BME280;50709;52.648;4.764;2023-03-14T02:00:53;98699.91;;;13.07;66.13
64388;BME280;50709;52.648;4.764;2023-03-14T02:03:20;98686.94;;;13.04;66.21
64388;BME280;50709;52.648;4.764;2023-03-14T02:05:48;98699.50;;;13.57;64.93
64388;BME280;50709;52.648;4.764;2023-03-14T02:08:17;98693.59;;;13.32;65.68
64388;BME280;50709;52.648;4.764;2023-03-14T02:10:47;98711.22;;;13.69;65.86
64388;BME280;50709;52.648;4.764;2023-03-14T02:13:15;98702.47;;;13.50;66.50
64388;BME280;50709;52.648;4.764;2023-03-14T02:15:41;98706.91;;;13.48;66.96
64388;BME280;50709;52.648;4.764;2023-03-14T02:18:08;98680.78;;;13.46;66.24
64388;BME280;50709;52.648;4.764;2023-03-14T02:23:07;98688.31;;;13.54;66.22
64388;BME280;50709;52.648;4.764;2023-03-14T02:28:07;98704.03;;;12.92;66.40
64388;BME280;50709;52.648;4.764;2023-03-14T02:30:33;98706.28;;;13.00;66.52
64388;BME280;50709;52.648;4.764;2023-03-14T02:33:03;98708.34;;;13.13;67.14
64388;BME280;50709;52.648;4.764;2023-03-14T02:35:34;98681.69;;;13.45;65.67
64388;BME280;50709;52.648;4.764;2023-03-14T02:38:02;98690.69;;;13.39;66.66
64388;BME280;50709;52.648;4.764;2023-03-14T02:40:29;98681.84;;;13.61;65.44
64388;BME280;50709;52.648;4.764;2023-03-14T02:42:54;98673.59;;;13.29;65.97
64388;BME280;50709;52.648;4.764;2023-03-14T02:47:51;98684.63;;;13.58;66.10
64388;BME280;50709;52.648;4.764;2023-03-14T02:50:21;98645.63;;;13.09;66.20
64388;BME280;50709;52.648;4.764;2023-03-14T02:52:48;98663.41;;;13.62;65.40
64388;BME280;50709;52.648;4.764;2023-03-14T02:55:14;98671.44;;;13.59;66.36
64388;BME280;50709;52.648;4.764;2023-03-14T02:57:39;98657.81;;;13.51;65.81
64388;BME280;50709;52.648;4.764;2023-03-14T03:00:05;98638.47;;;13.33;66.74
64388;BME280;50709;52.648;4.764;2023-03-14T03:02:31;98661.88;;;13.77;65.33
64388;BME280;50709;52.648;4.764;2023-03-14T03:04:57;98641.38;;;13.86;64.18
64388;BME280;50709;52.648;4.764;2023-03-14T03:07:23;98669.22;;;13.50;64.89
64388;BME280;50709;52.648;4.764;2023-03-14T03:09:49;98642.44;;;13.43;66.14
64388;BME280;50709;52.648;4.764;2023-03-14T03:12:14;98658.16;;;13.23;66.79
64388;BME280;50709;52.648;4.764;2023-03-14T03:14:39;98638.03;;;13.63;65.49
64388;BME280;50709;52.648;4.764;2023-03-14T03:17:05;98662.50;;;13.63;64.86
64388;BME280;50709;52.648;4.764;2023-03-14T03:19:31;98645.28;;;13.58;64.89
64388;BME280;50709;52.648;4.764;2023-03-14T03:21:57;98674.91;;;13.60;65.74
64388;BME280;50709;52.648;4.764;2023-03-14T03:24:23;98662.59;;;13.62;65.83
64388;BME280;50709;52.648;4.764;2023-03-14T03:26:49;98656.38;;;13.23;64.90
64388;BME280;50709;52.648;4.764;2023-03-14T03:29:14;98653.97;;;13.39;65.78
64388;BME280;50709;52.648;4.764;2023-03-14T03:31:39;98646.47;;;13.30;64.91
64388;BME280;50709;52.648;4.764;2023-03-14T03:34:05;98641.84;;;13.16;65.76
64388;BME280;50709;52.648;4.764;2023-03-14T03:36:30;98652.69;;;13.27;65.22
64388;BME280;50709;52.648;4.764;2023-03-14T03:38:55;98639.63;;;13.07;66.87
64388;BME280;50709;52.648;4.764;2023-03-14T03:41:21;98648.59;;;13.22;66.87
64388;BME280;50709;52.648;4.764;2023-03-14T03:43:46;98650.63;;;13.15;66.27
64388;BME280;50709;52.648;4.764;2023-03-14T03:46:11;98647.75;;;13.42;66.27
64388;BME280;50709;52.648;4.764;2023-03-14T03:48:37;98666.66;;;13.28;67.69
64388;BME280;50709;52.648;4.764;2023-03-14T03:51:03;98623.13;;;12.84;67.24
64388;BME280;50709;52.648;4.764;2023-03-14T03:53:28;98641.84;;;13.16;68.31
64388;BME280;50709;52.648;4.764;2023-03-14T03:55:54;98640.78;;;13.00;68.43
64388;BME280;50709;52.648;4.764;2023-03-14T03:58:19;98639.19;;;12.97;68.56
64388;BME280;50709;52.648;4.764;2023-03-14T04:00:45;98645.56;;;13.31;68.42
64388;BME280;50709;52.648;4.764;2023-03-14T04:03:10;98659.94;;;12.81;69.53
64388;BME280;50709;52.648;4.764;2023-03-14T04:05:35;98607.97;;;13.11;67.92
64388;BME280;50709;52.648;4.764;2023-03-14T04:08:02;98643.16;;;13.06;68.99
64388;BME280;50709;52.648;4.764;2023-03-14T04:10:28;98658.31;;;13.40;67.48
64388;BME280;50709;52.648;4.764;2023-03-14T04:12:54;98632.34;;;13.13;68.33
64388;BME280;50709;52.648;4.764;2023-03-14T04:15:19;98645.56;;;12.90;68.64
64388;BME280;50709;52.648;4.764;2023-03-14T04:17:44;98659.13;;;13.00;69.57
64388;BME280;50709;52.648;4.764;2023-03-14T04:20:10;98658.41;;;13.17;68.44
64388;BME280;50709;52.648;4.764;2023-03-14T04:22:37;98652.38;;;12.73;70.69
64388;BME280;50709;52.648;4.764;2023-03-14T04:25:02;98645.50;;;12.91;68.84
64388;BME280;50709;52.648;4.764;2023-03-14T04:27:28;98630.00;;;12.87;68.49
64388;BME280;50709;52.648;4.764;2023-03-14T04:29:54;98657.22;;;13.24;69.55
64388;BME280;50709;52.648;4.764;2023-03-14T04:32:19;98656.28;;;12.85;69.47
64388;BME280;50709;52.648;4.764;2023-03-14T04:34:45;98655.16;;;12.70;70.14
64388;BME280;50709;52.648;4.764;2023-03-14T04:37:10;98660.06;;;12.99;69.48
64388;BME280;50709;52.648;4.764;2023-03-14T04:39:36;98669.69;;;12.98;69.77
64388;BME280;50709;52.648;4.764;2023-03-14T04:42:01;98656.53;;;13.20;68.75
64388;BME280;50709;52.648;4.764;2023-03-14T04:44:27;98651.22;;;13.22;68.67
64388;BME280;50709;52.648;4.764;2023-03-14T04:46:52;98651.50;;;13.36;68.66
64388;BME280;50709;52.648;4.764;2023-03-14T04:49:17;98660.63;;;12.64;70.22
64388;BME280;50709;52.648;4.764;2023-03-14T04:51:43;98662.88;;;12.94;68.97
64388;BME280;50709;52.648;4.764;2023-03-14T04:54:09;98654.16;;;13.14;68.46
64388;BME280;50709;52.648;4.764;2023-03-14T04:56:34;98675.63;;;13.22;68.84
64388;BME280;50709;52.648;4.764;2023-03-14T04:58:59;98674.53;;;13.49;67.24
64388;BME280;50709;52.648;4.764;2023-03-14T05:01:25;98671.28;;;13.23;67.69
64388;BME280;50709;52.648;4.764;2023-03-14T05:03:50;98659.22;;;13.39;67.18
64388;BME280;50709;52.648;4.764;2023-03-14T05:06:16;98712.59;;;13.78;67.21
64388;BME280;50709;52.648;4.764;2023-03-14T05:08:41;98715.56;;;13.89;65.92
64388;BME280;50709;52.648;4.764;2023-03-14T05:11:09;98723.28;;;14.30;63.94
64388;BME280;50709;52.648;4.764;2023-03-14T05:13:35;98726.91;;;14.47;64.18
64388;BME280;50709;52.648;4.764;2023-03-14T05:16:08;98713.50;;;14.34;63.64
64388;BME280;50709;52.648;4.764;2023-03-14T05:18:33;98741.19;;;14.59;63.60
64388;BME280;50709;52.648;4.764;2023-03-14T05:20:59;98712.69;;;14.51;63.03
64388;BME280;50709;52.648;4.764;2023-03-14T05:23:25;98746.22;;;14.83;62.58
64388;BME280;50709;52.648;4.764;2023-03-14T05:25:50;98750.31;;;14.52;63.68
64388;BME280;50709;52.648;4.764;2023-03-14T05:28:15;98754.72;;;14.70;63.38
64388;BME280;50709;52.648;4.764;2023-03-14T05:30:41;98765.72;;;14.78;62.05
64388;BME280;50709;52.648;4.764;2023-03-14T05:33:06;98730.88;;;14.37;62.56
64388;BME280;50709;52.648;4.764;2023-03-14T05:35:31;98784.38;;;14.72;63.29
64388;BME280;50709;52.648;4.764;2023-03-14T05:37:57;98780.56;;;14.60;63.11
64388;BME280;50709;52.648;4.764;2023-03-14T05:40:22;98793.16;;;14.90;62.20
64388;BME280;50709;52.648;4.764;2023-03-14T05:42:48;98789.50;;;14.75;62.57
64388;BME280;50709;52.648;4.764;2023-03-14T05:45:13;98807.59;;;14.82;62.75
64388;BME280;50709;52.648;4.764;2023-03-14T05:47:38;98808.22;;;14.87;62.41
64388;BME280;50709;52.648;4.764;2023-03-14T05:50:04;98807.59;;;14.82;62.36
64388;BME280;50709;52.648;4.764;2023-03-14T05:52:29;98804.97;;;14.62;62.30
64388;BME280;50709;52.648;4.764;2023-03-14T05:54:55;98814.63;;;14.62;62.36
64388;BME280;50709;52.648;4.764;2023-03-14T05:57:20;98842.06;;;14.75;62.20
64388;BME280;50709;52.648;4.764;2023-03-14T05:59:45;98838.22;;;14.83;61.81
64388;BME280;50709;52.648;4.764;2023-03-14T06:02:11;98855.13;;;14.77;61.88
64388;BME280;50709;52.648;4.764;2023-03-14T06:04:36;98857.19;;;14.70;62.21
64388;BME280;50709;52.648;4.764;2023-03-14T06:07:01;98853.34;;;14.77;61.83
64388;BME280;50709;52.648;4.764;2023-03-14T06:09:27;98859.16;;;14.65;61.71
64388;BME280;50709;52.648;4.764;2023-03-14T06:11:52;98865.69;;;14.94;60.56
64388;BME280;50709;52.648;4.764;2023-03-14T06:14:17;98855.66;;;15.03;60.44
64388;BME280;50709;52.648;4.764;2023-03-14T06:16:43;98871.78;;;15.31;59.59
64388;BME280;50709;52.648;4.764;2023-03-14T06:19:08;98849.81;;;15.33;58.27
64388;BME280;50709;52.648;4.764;2023-03-14T06:21:34;98884.91;;;15.86;57.88
64388;BME280;50709;52.648;4.764;2023-03-14T06:24:00;98907.38;;;16.10;56.50
64388;BME280;50709;52.648;4.764;2023-03-14T06:26:25;98913.25;;;16.33;56.21
64388;BME280;50709;52.648;4.764;2023-03-14T06:28:51;98934.09;;;16.54;55.91
64388;BME280;50709;52.648;4.764;2023-03-14T06:31:17;98906.22;;;16.50;53.62
64388;BME280;50709;52.648;4.764;2023-03-14T06:33:42;98945.66;;;16.85;54.22
64388;BME280;50709;52.648;4.764;2023-03-14T06:36:08;98944.34;;;17.25;51.91
64388;BME280;50709;52.648;4.764;2023-03-14T06:38:33;98979.81;;;17.04;53.88
64388;BME280;50709;52.648;4.764;2023-03-14T06:41:06;98985.84;;;17.54;53.00
64388;BME280;50709;52.648;4.764;2023-03-14T06:43:31;98996.81;;;17.78;51.72
64388;BME280;50709;52.648;4.764;2023-03-14T06:45:57;99011.75;;;17.63;51.71
64388;BME280;50709;52.648;4.764;2023-03-14T06:48:22;99001.56;;;17.87;51.09
64388;BME280;50709;52.648;4.764;2023-03-14T06:50:48;99026.88;;;17.59;51.57
64388;BME280;50709;52.648;4.764;2023-03-14T06:53:14;99029.94;;;17.99;50.93
64388;BME280;50709;52.648;4.764;2023-03-14T06:55:39;99045.25;;;17.13;49.08
64388;BME280;50709;52.648;4.764;2023-03-14T06:58:04;99065.59;;;17.91;51.63
64388;BME280;50709;52.648;4.764;2023-03-14T07:00:33;99078.38;;;17.82;50.89
64388;BME280;50709;52.648;4.764;2023-03-14T07:02:58;99082.34;;;18.07;50.60
64388;BME280;50709;52.648;4.764;2023-03-14T07:05:23;99075.69;;;17.68;48.99
64388;BME280;50709;52.648;4.764;2023-03-14T07:07:49;99089.94;;;17.32;50.49
64388;BME280;50709;52.648;4.764;2023-03-14T07:10:14;99115.69;;;18.24;50.62
64388;BME280;50709;52.648;4.764;2023-03-14T07:12:40;99121.81;;;17.61;49.21
64388;BME280;50709;52.648;4.764;2023-03-14T07:15:05;99132.66;;;17.72;49.63
64388;BME280;50709;52.648;4.764;2023-03-14T07:17:31;99153.19;;;16.46;54.25
64388;BME280;50709;52.648;4.764;2023-03-14T07:19:56;99161.63;;;15.19;56.73
64388;BME280;50709;52.648;4.764;2023-03-14T07:22:21;99171.72;;;15.09;61.01
64388;BME280;50709;52.648;4.764;2023-03-14T07:24:47;99180.78;;;15.02;60.64
64388;BME280;50709;52.648;4.764;2023-03-14T07:27:12;99192.28;;;15.00;60.91
64388;BME280;50709;52.648;4.764;2023-03-14T07:29:38;99213.81;;;14.87;60.99
64388;BME280;50709;52.648;4.764;2023-03-14T07:32:03;99200.88;;;14.83;60.23
64388;BME280;50709;52.648;4.764;2023-03-14T07:34:28;99224.53;;;14.83;59.68
64388;BME280;50709;52.648;4.764;2023-03-14T07:36:54;99220.75;;;14.68;61.20
64388;BME280;50709;52.648;4.764;2023-03-14T07:39:19;99236.19;;;14.31;61.02
64388;BME280;50709;52.648;4.764;2023-03-14T07:41:45;99221.03;;;14.60;61.01
64388;BME280;50709;52.648;4.764;2023-03-14T07:44:10;99247.03;;;15.10;57.37
64388;BME280;50709;52.648;4.764;2023-03-14T07:46:35;99254.13;;;15.70;56.84
64388;BME280;50709;52.648;4.764;2023-03-14T07:49:01;99277.34;;;16.40;53.32
64388;BME280;50709;52.648;4.764;2023-03-14T07:51:26;99292.59;;;16.33;53.38
64388;BME280;50709;52.648;4.764;2023-03-14T07:53:54;99301.53;;;16.29;52.90
64388;BME280;50709;52.648;4.764;2023-03-14T07:56:19;99267.72;;;16.94;52.91
64388;BME280;50709;52.648;4.764;2023-03-14T07:58:45;99309.56;;;17.20;51.93
64388;BME280;50709;52.648;4.764;2023-03-14T08:01:10;99302.69;;;17.86;52.64
64388;BME280;50709;52.648;4.764;2023-03-14T08:03:35;99325.38;;;17.90;50.55
64388;BME280;50709;52.648;4.764;2023-03-14T08:06:01;99334.28;;;18.70;48.38
64388;BME280;50709;52.648;4.764;2023-03-14T08:08:26;99343.66;;;18.76;48.92
64388;BME280;50709;52.648;4.764;2023-03-14T08:10:51;99340.16;;;18.43;49.55
64388;BME280;50709;52.648;4.764;2023-03-14T08:13:17;99348.72;;;18.80;50.08
64388;BME280;50709;52.648;4.764;2023-03-14T08:15:42;99363.66;;;18.81;49.57
64388;BME280;50709;52.648;4.764;2023-03-14T08:18:07;99352.25;;;17.98;50.09
64388;BME280;50709;52.648;4.764;2023-03-14T08:20:33;99361.69;;;18.20;51.27
64388;BME280;50709;52.648;4.764;2023-03-14T08:23:00;99387.69;;;18.27;50.82
64388;BME280;50709;52.648;4.764;2023-03-14T08:25:27;99391.31;;;17.74;52.46
64388;BME280;50709;52.648;4.764;2023-03-14T08:27:53;99414.88;;;17.96;52.08
64388;BME280;50709;52.648;4.764;2023-03-14T08:30:20;99389.97;;;17.82;52.61
64388;BME280;50709;52.648;4.764;2023-03-14T08:32:45;99428.25;;;17.93;51.49
64388;BME280;50709;52.648;4.764;2023-03-14T08:35:11;99439.66;;;17.93;49.28
64388;BME280;50709;52.648;4.764;2023-03-14T08:37:37;99459.63;;;17.62;50.59
64388;BME280;50709;52.648;4.764;2023-03-14T08:40:04;99436.63;;;17.47;48.84
64388;BME280;50709;52.648;4.764;2023-03-14T08:42:33;99456.59;;;17.16;51.21
64388;BME280;50709;52.648;4.764;2023-03-14T08:44:59;99464.25;;;17.21;51.93
64388;BME280;50709;52.648;4.764;2023-03-14T08:47:25;99481.72;;;17.42;50.49
64388;BME280;50709;52.648;4.764;2023-03-14T08:49:50;99490.19;;;17.49;49.76
64388;BME280;50709;52.648;4.764;2023-03-14T08:52:15;99524.81;;;17.43;51.51
64388;BME280;50709;52.648;4.764;2023-03-14T08:54:44;99532.78;;;17.60;51.22
64388;BME280;50709;52.648;4.764;2023-03-14T08:57:10;99546.19;;;17.37;49.61
64388;BME280;50709;52.648;4.764;2023-03-14T08:59:35;99555.59;;;17.42;51.67
64388;BME280;50709;52.648;4.764;2023-03-14T09:02:01;99566.72;;;17.11;51.64
64388;BME280;50709;52.648;4.764;2023-03-14T09:04:29;99570.19;;;16.51;49.69
64388;BME280;50709;52.648;4.764;2023-03-14T09:06:54;99578.91;;;16.94;52.42
64388;BME280;50709;52.648;4.764;2023-03-14T09:09:20;99579.41;;;17.03;52.16
64388;BME280;50709;52.648;4.764;2023-03-14T09:11:45;99598.97;;;16.56;51.02
64388;BME280;50709;52.648;4.764;2023-03-14T09:14:11;99614.00;;;16.54;52.66
64388;BME280;50709;52.648;4.764;2023-03-14T09:16:36;99617.28;;;17.21;51.21
64388;BME280;50709;52.648;4.764;2023-03-14T09:19:02;99625.81;;;17.46;52.23
64388;BME280;50709;52.648;4.764;2023-03-14T09:21:28;99650.34;;;17.87;53.45
64388;BME280;50709;52.648;4.764;2023-03-14T09:23:53;99631.69;;;17.53;53.35
64388;BME280;50709;52.648;4.764;2023-03-14T09:26:19;99656.84;;;17.60;53.41
64388;BME280;50709;52.648;4.764;2023-03-14T09:28:45;99614.38;;;17.84;53.67
64388;BME280;50709;52.648;4.764;2023-03-14T09:31:11;99673.94;;;18.10;53.53
64388;BME280;50709;52.648;4.764;2023-03-14T09:33:38;99658.44;;;18.03;51.77
64388;BME280;50709;52.648;4.764;2023-03-14T09:36:04;99689.34;;;17.81;50.02
64388;BME280;50709;52.648;4.764;2023-03-14T09:38:30;99693.94;;;17.97;53.48
64388;BME280;50709;52.648;4.764;2023-03-14T09:40:58;99668.47;;;17.37;53.94
64388;BME280;50709;52.648;4.764;2023-03-14T09:43:24;99722.56;;;17.27;50.78
64388;BME280;50709;52.648;4.764;2023-03-14T09:45:51;99706.69;;;17.87;53.78
64388;BME280;50709;52.648;4.764;2023-03-14T09:48:24;99704.63;;;17.54;54.15
64388;BME280;50709;52.648;4.764;2023-03-14T09:50:54;99739.38;;;17.85;53.75
64388;BME280;50709;52.648;4.764;2023-03-14T09:53:28;99756.91;;;18.06;53.46
64388;BME280;50709;52.648;4.764;2023-03-14T09:55:58;99749.72;;;17.08;47.99
64388;BME280;50709;52.648;4.764;2023-03-14T09:58:24;99749.94;;;17.24;48.27
64388;BME280;50709;52.648;4.764;2023-03-14T10:00:52;99760.13;;;17.94;52.73
64388;BME280;50709;52.648;4.764;2023-03-14T10:05:44;99782.31;;;17.88;50.20
64388;BME280;50709;52.648;4.764;2023-03-14T10:08:11;99768.25;;;17.27;52.03
64388;BME280;50709;52.648;4.764;2023-03-14T10:10:36;99813.50;;;17.80;51.94
64388;BME280;50709;52.648;4.764;2023-03-14T10:13:20;99778.28;;;17.60;51.83
64388;BME280;50709;52.648;4.764;2023-03-14T10:16:02;99790.84;;;17.55;50.14
64388;BME280;50709;52.648;4.764;2023-03-14T10:18:30;99837.81;;;17.47;51.07
64388;BME280;50709;52.648;4.764;2023-03-14T10:21:27;99848.84;;;17.77;51.32
64388;BME280;50709;52.648;4.764;2023-03-14T10:23:53;99849.13;;;18.31;50.07
64388;BME280;50709;52.648;4.764;2023-03-14T10:26:27;99870.69;;;18.98;48.00
64388;BME280;50709;52.648;4.764;2023-03-14T10:29:01;99848.34;;;19.23;45.44
64388;BME280;50709;52.648;4.764;2023-03-14T10:31:27;99851.13;;;19.73;43.68
64388;BME280;50709;52.648;4.764;2023-03-14T10:34:03;99873.22;;;20.40;43.53
64388;BME280;50709;52.648;4.764;2023-03-14T10:36:30;99875.16;;;20.86;43.71
64388;BME280;50709;52.648;4.764;2023-03-14T10:42:04;99917.44;;;21.21;41.89
64388;BME280;50709;52.648;4.764;2023-03-14T10:44:30;99914.97;;;20.86;41.06
64388;BME280;50709;52.648;4.764;2023-03-14T10:47:01;99928.13;;;20.72;43.00
64388;BME280;50709;52.648;4.764;2023-03-14T10:49:34;99903.41;;;21.03;42.73
64388;BME280;50709;52.648;4.764;2023-03-14T10:52:14;99948.13;;;21.11;43.02
64388;BME280;50709;52.648;4.764;2023-03-14T10:54:40;99946.91;;;21.16;42.53
64388;BME280;50709;52.648;4.764;2023-03-14T10:57:05;99954.19;;;20.97;39.60
64388;BME280;50709;52.648;4.764;2023-03-14T10:59:37;99965.03;;;21.40;41.05
64388;BME280;50709;52.648;4.764;2023-03-14T11:05:15;99987.13;;;22.03;40.90
64388;BME280;50709;52.648;4.764;2023-03-14T11:07:44;99985.31;;;22.04;41.20
64388;BME280;50709;52.648;4.764;2023-03-14T11:15:38;100011.72;;;21.76;39.31
64388;BME280;50709;52.648;4.764;2023-03-14T11:21:14;100026.56;;;22.41;41.06
64388;BME280;50709;52.648;4.764;2023-03-14T11:28:57;100048.84;;;22.24;41.76
64388;BME280;50709;52.648;4.764;2023-03-14T11:31:27;100064.66;;;22.11;40.82
64388;BME280;50709;52.648;4.764;2023-03-14T11:36:39;100092.00;;;22.13;41.90
64388;BME280;50709;52.648;4.764;2023-03-14T11:39:12;100082.19;;;22.30;41.24
64388;BME280;50709;52.648;4.764;2023-03-14T11:41:58;100095.88;;;22.08;39.72
64388;BME280;50709;52.648;4.764;2023-03-14T11:44:30;100104.13;;;22.33;40.15
64388;BME280;50709;52.648;4.764;2023-03-14T11:47:10;100112.63;;;22.40;40.17
64388;BME280;50709;52.648;4.764;2023-03-14T11:49:48;100097.63;;;22.39;40.55
64388;BME280;50709;52.648;4.764;2023-03-14T11:57:29;100138.28;;;22.86;40.09
64388;BME280;50709;52.648;4.764;2023-03-14T12:08:01;100156.00;;;22.10;37.36
64388;BME280;50709;52.648;4.764;2023-03-14T12:10:52;100161.63;;;22.36;41.09
64388;BME280;50709;52.648;4.764;2023-03-14T12:13:19;100166.94;;;22.82;40.04
64388;BME280;50709;52.648;4.764;2023-03-14T12:15:56;100183.41;;;22.27;40.78
64388;BME280;50709;52.648;4.764;2023-03-14T12:18:50;100190.81;;;21.90;40.51
64388;BME280;50709;52.648;4.764;2023-03-14T12:21:16;100183.00;;;21.37;42.06
64388;BME280;50709;52.648;4.764;2023-03-14T12:23:45;100198.94;;;20.86;42.73
64388;BME280;50709;52.648;4.764;2023-03-14T12:29:05;100225.38;;;20.14;43.12
64388;BME280;50709;52.648;4.764;2023-03-14T12:31:49;100213.19;;;20.29;42.04
64388;BME280;50709;52.648;4.764;2023-03-14T12:34:33;100192.81;;;19.93;43.71
64388;BME280;50709;52.648;4.764;2023-03-14T12:47:53;100244.59;;;19.81;42.79
64388;BME280;50709;52.648;4.764;2023-03-14T12:50:31;100259.88;;;19.14;42.31
64388;BME280;50709;52.648;4.764;2023-03-14T12:53:05;100242.94;;;19.58;43.08
64388;BME280;50709;52.648;4.764;2023-03-14T13:01:35;100282.09;;;19.31;42.74
64388;BME280;50709;52.648;4.764;2023-03-14T13:04:10;100270.00;;;19.25;43.69
64388;BME280;50709;52.648;4.764;2023-03-14T13:06:47;100298.34;;;19.23;43.70
64388;BME280;50709;52.648;4.764;2023-03-14T13:12:10;100290.72;;;19.15;39.93
64388;BME280;50709;52.648;4.764;2023-03-14T13:14:41;100294.97;;;18.75;42.21
64388;BME280;50709;52.648;4.764;2023-03-14T13:17:16;100286.25;;;19.16;42.87
64388;BME280;50709;52.648;4.764;2023-03-14T13:19:50;100305.25;;;19.26;38.81
64388;BME280;50709;52.648;4.764;2023-03-14T13:22:24;100314.97;;;19.05;43.62
64388;BME280;50709;52.648;4.764;2023-03-14T13:24:56;100327.03;;;19.12;43.32
64388;BME280;50709;52.648;4.764;2023-03-14T13:27:22;100320.59;;;18.97;42.10
64388;BME280;50709;52.648;4.764;2023-03-14T13:29:50;100335.09;;;19.09;43.24
64388;BME280;50709;52.648;4.764;2023-03-14T13:32:26;100332.69;;;18.80;40.43
64388;BME280;50709;52.648;4.764;2023-03-14T13:34:55;100339.13;;;19.17;43.50
64388;BME280;50709;52.648;4.764;2023-03-14T13:37:23;100349.41;;;19.25;43.21
64388;BME280;50709;52.648;4.764;2023-03-14T13:39:57;100372.75;;;19.15;42.97
64388;BME280;50709;52.648;4.764;2023-03-14T13:42:26;100377.31;;;19.12;43.48
64388;BME280;50709;52.648;4.764;2023-03-14T13:44:56;100376.41;;;19.13;42.95
64388;BME280;50709;52.648;4.764;2023-03-14T13:47:24;100375.69;;;19.30;43.47
64388;BME280;50709;52.648;4.764;2023-03-14T13:49:51;100373.44;;;19.21;42.58
64388;BME280;50709;52.648;4.764;2023-03-14T13:52:36;100382.81;;;19.07;43.25
64388;BME280;50709;52.648;4.764;2023-03-14T13:55:05;100355.63;;;18.80;43.25
64388;BME280;50709;52.648;4.764;2023-03-14T14:00:18;100387.47;;;19.01;43.59
64388;BME280;50709;52.648;4.764;2023-03-14T14:02:43;100417.38;;;19.25;42.80
64388;BME280;50709;52.648;4.764;2023-03-14T14:05:12;100424.88;;;18.91;40.50
64388;BME280;50709;52.648;4.764;2023-03-14T14:07:39;100422.44;;;18.85;42.81
64388;BME280;50709;52.648;4.764;2023-03-14T14:10:05;100407.75;;;18.30;43.32
64388;BME280;50709;52.648;4.764;2023-03-14T14:13:00;100438.84;;;18.71;43.57